AirNav   Air Wisconsin pilot careers
 
 282 users online  

1KS Linn County Airport
Pleasanton, Kansas, USA

GOING TO PLEASANTON?


FAA INFORMATION EFFECTIVE 28 MARCH 2019

Location

FAA Identifier: 1KS
Lat/Long: 38-10-24.3600N / 094-41-25.1700W
38-10.406000N / 094-41.419500W
38.1734333 / -94.6903250
(estimated)
Elevation: 860 ft. / 262 m (estimated)
From city: 1 mile E of PLEASANTON, KS
Time zone: UTC -5 (UTC -6 during Standard Time)
Zip code: 66767

Airport Operations

Airport use: Open to the public
Activation date: 11/2014
Control tower: no
ARTCC: KANSAS CITY CENTER
FSS: WICHITA FLIGHT SERVICE STATION
NOTAMs facility: ICT (NOTAM-D service available)
Attendance: UNATNDD
Wind indicator: yes
Segmented circle: no

Airport Communications

CTAF/UNICOM: 122.8

Nearby radio navigation aids

VOR radial/distance  VOR name  Freq  Var
BUMr231/11.2BUTLER VORTAC115.9007E

Airport Services

Parking: tiedowns

Runway Information

Runway 18/36

Dimensions: 3000 x 60 ft. / 914 x 18 m
Surface: asphalt, in excellent condition
RUNWAY 18  RUNWAY 36
Latitude: 38-10.653333N38-10.158667N
Longitude: 094-41.420667W094-41.418333W
Elevation: 860.0 ft.830.0 ft.
Traffic pattern: rightleft
Markings: basic, in good conditionbasic, in good condition
Obstructions: 25 ft. tree, 1130 ft. from runway, 138 ft. left of centerline, 37:1 slope to clearnone

Airport Ownership and Management from official FAA records

Ownership: Publicly-owned
Owner: LINN COUNTY
306 MAIN STREET
MOUND CITY, KS 66056
Phone 913-795-2274
Manager: ANDY MAYHUGH
306 MAIN STREET
MOUND CITY, KS 66056
Phone (913) 795-2422

Additional Remarks

WILDLIFE ON AND INVOF RUNWAY

Instrument Procedures

There are no published instrument procedures at 1KS.

Some nearby airports with instrument procedures:

KBUM - Butler Memorial Airport (18 nm NE)
KFSK - Fort Scott Municipal Airport (23 nm S)
K81 - Miami County Airport (25 nm NW)
KNVD - Nevada Municipal Airport (27 nm SE)
KLRY - Lawrence Smith Memorial Airport (31 nm NE)
 
Loc | Ops | Rwys | IFR | FBO | Links
Com | Nav | Svcs | Stats | Notes
Aerial photo
WARNING: Photo may not be current or correct
Aerial photo of 1KS (Linn County Airport)
Photo taken 19-Aug-2015
looking south.

Do you have a better or more recent aerial photo of Linn County Airport that you would like to share? If so, please send us your photo.

 
Airport distance calculator
Flying to Linn County Airport? Find the distance to fly.

From to 1KS

Sunrise and sunset
Times for 24-Apr-2019
 Local
(UTC-5)
 Zulu
(UTC)
Morning civil twilight06:0411:04
Sunrise06:3211:32
Sunset20:0201:02
Evening civil twilight20:3001:30

Current date and time
Zulu (UTC)  24-Apr-2019 07:10:05
Local (UTC-5)  24-Apr-2019 02:10:05
 
METAR
KLRY 
31nm NE 
240655Z AUTO 00000KT 7SM OVC024 12/11 A2999 RMK AO2
KOWI 
34nm NW 
240655Z AUTO 32004KT 2SM BR OVC008 11/11 A2997 RMK AO2
KK88 
38nm SW 
240555Z 5SM SCT004 SCT009 OVC018 11/11 A2999 RMK AO1 60001 T01110111 10120 20110
KIXD 
40nm N 
240653Z AUTO 32004KT 5SM BR OVC012 11/10 A2998 RMK AO2 SLP150 T01110100
KOJC 
41nm N 
240703Z AUTO 33003KT 6SM BR OVC010 11/11 A2997 RMK AO2 T01110106
KPTS 
43nm S 
240655Z AUTO 00000KT 1 1/4SM BR OVC002 12/12 A2996 RMK AO2 LTG DSNT S T01200120
KCNU 
48nm SW 
240652Z AUTO 00000KT 3SM BR OVC004 13/11 A2997 RMK AO2 CIG 003V008 SLP145 T01280111
KGLY 
49nm E 
240655Z AUTO 00000KT 5SM BR OVC009 12/12 A2996 RMK AO2
KLXT 
50nm N 
240653Z AUTO 34003KT 6SM BR FEW012 OVC020 12/10 A2996 RMK AO2 SLP146 T01170100
TAF
KIXD 
40nm N 
240520Z 2406/2506 VRB03KT P6SM VCSH BKN020 FM240800 VRB03KT P6SM VCSH BKN015 FM241000 VRB04KT P6SM BKN009 FM241700 VRB03KT P6SM BKN015 FM242000 VRB03KT P6SM SCT250
KCNU 
48nm SW 
240520Z 2406/2506 VRB03KT 4SM BR BKN009 OVC015 FM241000 VRB03KT 4SM BR BKN003 TEMPO 2410/2413 1SM BR FM241300 VRB03KT P6SM BKN008 FM241500 VRB03KT P6SM BKN015 FM241700 VRB05KT P6SM BKN025 FM242000 VRB05KT P6SM BKN035 FM250300 00000KT P6SM BKN200
NOTAMs
Click for the latest NOTAMs
NOTAMs are issued by the DoD/FAA and will open in a separate window not controlled by AirNav.

 

 
 

Would you like to see your business listed on this page?

 If your business provides an interesting product or service to pilots, flight crews, aircraft, or users of the Linn County Airport, you should consider listing it here.  To start the listing process, click on the button below
 
Add a business
 

Other Pages about Linn County Airport

Update a link
 
Copyright © AirNav, LLC. All rights reserved. Privacy Policy  Contact